createdAt,value
2023-02-19T00:00:02.984Z,7.05
2023-02-19T00:05:26.011Z,7.53
2023-02-19T00:10:28.555Z,9.00
2023-02-19T00:15:33.142Z,10.75
2023-02-19T00:20:35.792Z,9.60
2023-02-19T00:25:38.440Z,8.48
2023-02-19T00:30:41.192Z,8.80
2023-02-19T00:35:43.770Z,9.95
2023-02-19T00:40:46.384Z,9.68
2023-02-19T00:45:49.597Z,12.70
2023-02-19T00:50:52.178Z,18.33
2023-02-19T00:55:54.752Z,16.75
2023-02-19T01:00:57.777Z,20.10
2023-02-19T01:06:01.164Z,22.45
2023-02-19T01:11:06.003Z,24.13
2023-02-19T01:21:23.959Z,16.25
2023-02-19T01:26:30.783Z,16.60
2023-02-19T01:31:34.426Z,11.07
2023-02-19T01:36:37.926Z,12.40
2023-02-19T01:41:43.720Z,11.98
2023-02-19T01:46:48.631Z,11.95
2023-02-19T01:52:04.200Z,6.90
2023-02-19T01:57:10.211Z,9.93
2023-02-19T02:02:13.041Z,12.20
2023-02-19T02:07:36.284Z,8.25
2023-02-19T02:12:38.850Z,10.02
2023-02-19T02:23:20.661Z,8.32
2023-02-19T02:38:57.123Z,9.00
2023-02-19T02:44:00.190Z,9.57
2023-02-19T02:49:07.701Z,11.30
2023-02-19T02:54:36.548Z,9.65
2023-02-19T02:59:45.493Z,6.60
2023-02-19T03:10:25.723Z,8.82
2023-02-19T03:15:55.660Z,10.38
2023-02-19T03:20:59.506Z,9.13
2023-02-19T03:26:03.908Z,10.57
2023-02-19T03:31:21.114Z,7.90
2023-02-19T03:36:27.565Z,11.30
2023-02-19T03:41:57.418Z,9.90
2023-02-19T03:47:29.224Z,10.65
2023-02-19T04:08:47.715Z,12.23
2023-02-19T04:14:01.524Z,11.35
2023-02-19T04:19:09.504Z,11.55
2023-02-19T04:24:18.498Z,11.73
2023-02-19T04:29:21.183Z,12.90
2023-02-19T04:34:23.783Z,10.48
2023-02-19T04:39:26.422Z,9.38
2023-02-19T04:44:29.405Z,10.43
2023-02-19T04:49:31.995Z,10.80
2023-02-19T04:54:34.632Z,10.60
2023-02-19T04:59:37.271Z,10.23
2023-02-19T05:04:39.894Z,11.20
2023-02-19T05:09:42.574Z,13.10
2023-02-19T05:14:45.164Z,12.20
2023-02-19T05:19:47.865Z,12.35
2023-02-19T05:24:50.493Z,11.25
2023-02-19T05:29:53.132Z,12.85
2023-02-19T05:34:55.848Z,14.73
2023-02-19T05:39:58.440Z,12.80
2023-02-19T05:45:01.287Z,14.55
2023-02-19T05:50:04.478Z,13.57
2023-02-19T05:55:07.361Z,15.65
2023-02-19T06:00:11.990Z,15.82
2023-02-19T06:05:26.302Z,19.15
2023-02-19T06:10:29.041Z,18.33
2023-02-19T06:15:31.593Z,17.50
2023-02-19T06:20:34.194Z,18.10
2023-02-19T06:25:36.862Z,16.77
2023-02-19T06:30:39.513Z,16.85
2023-02-19T06:35:42.107Z,17.67
2023-02-19T06:40:44.705Z,17.23
2023-02-19T06:45:48.900Z,17.88
2023-02-19T06:50:51.496Z,17.77
2023-02-19T07:01:13.886Z,18.48
2023-02-19T07:06:16.688Z,17.60
2023-02-19T07:11:19.482Z,18.50
2023-02-19T07:16:23.009Z,22.08
2023-02-19T07:21:25.934Z,26.65
2023-02-19T07:26:28.479Z,24.27
2023-02-19T07:31:31.212Z,22.15
2023-02-19T07:36:33.800Z,21.48
2023-02-19T07:41:36.366Z,19.48
2023-02-19T07:46:39.300Z,21.95
2023-02-19T07:51:41.838Z,20.55
2023-02-19T07:56:45.432Z,17.45
2023-02-19T08:02:07.892Z,18.50
2023-02-19T08:07:11.606Z,18.10
2023-02-19T08:12:34.039Z,18.40
2023-02-19T08:17:36.647Z,15.30
2023-02-19T08:22:39.280Z,16.35
2023-02-19T08:27:41.853Z,15.70
2023-02-19T08:32:44.406Z,19.90
2023-02-19T08:37:47.092Z,12.88
2023-02-19T08:42:49.750Z,15.52
2023-02-19T08:47:52.419Z,15.55
2023-02-19T08:52:54.958Z,16.65
2023-02-19T08:57:57.536Z,16.08
2023-02-19T09:03:00.264Z,14.38
2023-02-19T09:08:02.914Z,16.20
2023-02-19T09:13:05.615Z,12.93
2023-02-19T09:18:08.253Z,12.82
2023-02-19T09:23:10.852Z,13.30
2023-02-19T09:28:13.481Z,11.75
2023-02-19T09:33:16.131Z,9.98
2023-02-19T09:38:18.652Z,7.47
2023-02-19T09:43:23.808Z,10.32
2023-02-19T09:48:27.112Z,14.15
2023-02-19T09:53:40.313Z,9.25
2023-02-19T09:59:00.317Z,9.63
2023-02-19T10:04:04.326Z,11.73
2023-02-19T10:09:20.358Z,9.50
2023-02-19T10:14:32.692Z,10.25
2023-02-19T10:19:36.492Z,9.23
2023-02-19T10:24:42.939Z,10.48
2023-02-19T10:29:48.053Z,7.65
2023-02-19T10:40:17.618Z,10.10
2023-02-19T10:45:24.657Z,8.55
2023-02-19T10:50:32.156Z,6.15
2023-02-19T10:55:38.148Z,8.63
2023-02-19T11:00:41.426Z,10.40
2023-02-19T11:05:53.702Z,8.65
2023-02-19T11:10:56.576Z,9.35
2023-02-19T11:16:00.590Z,10.20
2023-02-19T11:21:06.445Z,10.10
2023-02-19T11:26:19.935Z,10.27
2023-02-19T11:31:28.131Z,10.27
2023-02-19T12:45:27.503Z,12.50
2023-02-19T12:50:32.136Z,14.48
2023-02-19T12:55:40.670Z,10.70
2023-02-19T13:00:50.578Z,10.57
2023-02-19T13:11:16.416Z,11.18
2023-02-19T13:16:24.528Z,15.50
2023-02-19T13:21:50.841Z,9.98
2023-02-19T13:27:24.285Z,10.80
2023-02-19T13:38:00.251Z,10.70
2023-02-19T13:43:06.730Z,10.55
2023-02-19T14:04:17.187Z,12.35
2023-02-19T14:14:52.830Z,9.52
2023-02-19T14:31:04.065Z,9.55
2023-02-19T14:36:48.735Z,11.68
2023-02-19T14:41:56.633Z,12.73
2023-02-19T14:47:17.739Z,13.45
2023-02-19T14:52:45.753Z,14.65
2023-02-19T14:57:51.260Z,12.80
2023-02-19T15:02:59.761Z,12.38
2023-02-19T15:08:09.328Z,11.07
2023-02-19T15:13:17.522Z,11.05
2023-02-19T15:18:23.212Z,12.27
2023-02-19T15:23:26.996Z,12.02
2023-02-19T15:28:32.988Z,13.60
2023-02-19T15:33:35.722Z,12.48
2023-02-19T15:38:38.342Z,12.75
2023-02-19T15:43:49.921Z,12.73
2023-02-19T15:49:15.840Z,14.93
2023-02-19T15:54:28.442Z,13.07
2023-02-19T15:59:42.839Z,16.38
2023-02-19T16:04:46.048Z,10.70
2023-02-19T16:09:49.664Z,11.43
2023-02-19T16:14:52.399Z,14.27
2023-02-19T16:19:57.906Z,12.80
2023-02-19T16:25:03.345Z,15.55
2023-02-19T16:30:25.774Z,15.77
2023-02-19T16:35:37.688Z,15.00
2023-02-19T16:45:55.258Z,16.05
2023-02-19T16:50:58.162Z,16.80
2023-02-19T16:56:00.819Z,23.50
2023-02-19T17:01:03.530Z,13.13
2023-02-19T17:06:06.522Z,11.75
2023-02-19T17:11:13.500Z,19.90
2023-02-19T17:16:19.886Z,14.88
2023-02-19T17:21:27.110Z,15.98
2023-02-19T17:26:32.055Z,16.83
2023-02-19T17:31:34.838Z,19.58
2023-02-19T17:36:39.105Z,18.08
2023-02-19T17:41:42.042Z,21.10
2023-02-19T17:46:50.427Z,17.08
2023-02-19T17:51:53.304Z,18.40
2023-02-19T17:56:56.039Z,14.68
2023-02-19T18:01:58.767Z,22.17
2023-02-19T18:07:03.007Z,17.05
2023-02-19T18:12:07.120Z,18.25
2023-02-19T18:17:09.809Z,18.23
2023-02-19T18:22:12.524Z,10.90
2023-02-19T18:27:16.018Z,17.23
2023-02-19T18:32:21.001Z,19.42
2023-02-19T18:37:25.081Z,18.40
2023-02-19T18:42:28.424Z,17.00
2023-02-19T18:47:31.117Z,17.65
2023-02-19T18:52:33.772Z,17.10
2023-02-19T18:57:36.491Z,18.02
2023-02-19T19:02:48.684Z,21.65
2023-02-19T19:07:53.685Z,14.70
2023-02-19T19:12:58.727Z,17.02
2023-02-19T19:18:02.838Z,19.17
2023-02-19T19:23:06.467Z,21.05
2023-02-19T19:28:09.028Z,18.25
2023-02-19T19:33:14.278Z,22.33
2023-02-19T19:38:17.481Z,24.98
2023-02-19T19:43:20.130Z,18.95
2023-02-19T19:48:24.385Z,18.38
2023-02-19T19:53:27.172Z,21.73
2023-02-19T19:58:29.879Z,24.30
2023-02-19T20:03:33.812Z,23.35
2023-02-19T20:08:36.541Z,16.52
2023-02-19T20:13:39.256Z,19.35
2023-02-19T20:18:42.058Z,27.10
2023-02-19T20:23:44.864Z,24.38
2023-02-19T20:28:47.604Z,18.60
2023-02-19T20:33:51.500Z,15.88
2023-02-19T20:38:54.591Z,22.98
2023-02-19T20:43:57.506Z,19.92
2023-02-19T20:49:00.142Z,20.83
2023-02-19T20:54:02.917Z,20.05
2023-02-19T20:59:05.471Z,22.33
2023-02-19T21:04:08.262Z,18.67
2023-02-19T21:09:10.917Z,18.63
2023-02-19T21:14:13.972Z,16.23
2023-02-19T21:19:16.724Z,19.38
2023-02-19T21:24:19.424Z,21.77
2023-02-19T21:29:23.157Z,19.63
2023-02-19T21:34:28.522Z,17.38
2023-02-19T21:39:32.435Z,20.15
2023-02-19T21:44:35.110Z,22.50
2023-02-19T21:49:37.754Z,17.80
2023-02-19T21:54:40.387Z,17.92
2023-02-19T21:59:42.974Z,18.52
2023-02-19T22:04:46.951Z,23.88
2023-02-19T22:09:51.317Z,21.63
2023-02-19T22:14:53.984Z,22.35
2023-02-19T22:19:56.534Z,22.17
2023-02-19T22:24:59.139Z,18.35
2023-02-19T22:30:02.278Z,25.90
2023-02-19T22:35:06.409Z,20.88
2023-02-19T22:40:09.334Z,27.40
2023-02-19T22:45:12.756Z,23.58
2023-02-19T22:50:18.754Z,24.30
2023-02-19T22:55:22.034Z,22.02
2023-02-19T23:00:24.655Z,24.23
2023-02-19T23:05:27.336Z,21.70
2023-02-19T23:10:29.955Z,25.00
2023-02-19T23:15:32.701Z,20.80
2023-02-19T23:20:35.711Z,22.33
2023-02-19T23:25:38.360Z,20.27
2023-02-19T23:30:41.051Z,20.80
2023-02-19T23:35:43.791Z,26.17
2023-02-19T23:40:46.388Z,26.75
2023-02-19T23:45:48.947Z,29.08
2023-02-19T23:50:51.530Z,18.45
2023-02-19T23:55:54.190Z,28.77
